Elfers, Florida
Current Conditions -  °F | °C
As of 10:35 PM on Sunday 21 Dec 2014 (Local Time) from KCLW Reporting Station
Light Rain Light Rain  
Wind Chill: 64°   Ceiling: 1900
Heat Index: 64°   Visibility: 7mi
Dew Point: 64°   Wind: 5mph
Humidity: 100%   Direction: 130°SE
Pressure: 30.02"   Gusts: NA
Location:  28.22°N, 82.72°W
Report Text: KCLW 220335Z AUTO 13004KT 7SM -RA BKN019 BKN026 OVC060 18/18 A3002 RMK AO2 P0002
Loading
Personal Weather Stations






























Interactive Weather Map New forecast layout! Learn more

10-Day Weather Forecast

Advertisements
Track Severe Weather on mobile